sensor_id;sensor_type;location;lat;lon;timestamp;pressure;altitude;pressure_sealevel;temperature;humidity
69836;BME280;57132;51.972;4.450;2023-04-01T00:02:00;99027.84;;;7.90;100.00
69836;BME280;57132;51.972;4.450;2023-04-01T00:04:25;99034.16;;;7.89;100.00
69836;BME280;57132;51.972;4.450;2023-04-01T00:06:50;99033.16;;;7.90;100.00
69836;BME280;57132;51.972;4.450;2023-04-01T00:09:17;99031.34;;;7.91;100.00
69836;BME280;57132;51.972;4.450;2023-04-01T00:11:42;99035.81;;;7.90;100.00
69836;BME280;57132;51.972;4.450;2023-04-01T00:14:09;99031.50;;;7.89;100.00
69836;BME280;57132;51.972;4.450;2023-04-01T00:16:35;99029.94;;;7.86;100.00
69836;BME280;57132;51.972;4.450;2023-04-01T00:19:00;99030.09;;;7.85;100.00
69836;BME280;57132;51.972;4.450;2023-04-01T00:21:26;99037.22;;;7.84;100.00
69836;BME280;57132;51.972;4.450;2023-04-01T00:23:51;99040.72;;;7.85;100.00
69836;BME280;57132;51.972;4.450;2023-04-01T00:26:17;99038.31;;;7.82;100.00
69836;BME280;57132;51.972;4.450;2023-04-01T00:28:45;99040.13;;;7.81;100.00
69836;BME280;57132;51.972;4.450;2023-04-01T00:31:11;99049.19;;;7.79;100.00
69836;BME280;57132;51.972;4.450;2023-04-01T00:33:37;99045.72;;;7.78;100.00
69836;BME280;57132;51.972;4.450;2023-04-01T00:36:11;99048.38;;;7.78;100.00
69836;BME280;57132;51.972;4.450;2023-04-01T00:38:37;99055.50;;;7.78;100.00
69836;BME280;57132;51.972;4.450;2023-04-01T00:41:04;99055.66;;;7.76;100.00
69836;BME280;57132;51.972;4.450;2023-04-01T00:43:30;99056.75;;;7.74;100.00
69836;BME280;57132;51.972;4.450;2023-04-01T00:45:56;99061.22;;;7.73;100.00
69836;BME280;57132;51.972;4.450;2023-04-01T00:48:30;99071.00;;;7.73;100.00
69836;BME280;57132;51.972;4.450;2023-04-01T00:51:18;99066.66;;;7.72;100.00
69836;BME280;57132;51.972;4.450;2023-04-01T00:53:45;99064.97;;;7.71;100.00
69836;BME280;57132;51.972;4.450;2023-04-01T00:56:14;99062.31;;;7.71;100.00
69836;BME280;57132;51.972;4.450;2023-04-01T00:58:46;99074.91;;;7.69;100.00
69836;BME280;57132;51.972;4.450;2023-04-01T01:01:13;99076.72;;;7.68;100.00
69836;BME280;57132;51.972;4.450;2023-04-01T01:03:39;99074.19;;;7.67;100.00
69836;BME280;57132;51.972;4.450;2023-04-01T01:09:03;99074.19;;;7.67;100.00
69836;BME280;57132;51.972;4.450;2023-04-01T01:11:46;99088.28;;;7.67;100.00
69836;BME280;57132;51.972;4.450;2023-04-01T01:22:33;99092.06;;;7.64;100.00
69836;BME280;57132;51.972;4.450;2023-04-01T01:27:31;99092.06;;;7.64;100.00
69836;BME280;57132;51.972;4.450;2023-04-01T01:35:33;99092.34;;;7.61;100.00
69836;BME280;57132;51.972;4.450;2023-04-01T01:38:07;99094.00;;;7.62;100.00
69836;BME280;57132;51.972;4.450;2023-04-01T01:40:35;99101.13;;;7.62;100.00
69836;BME280;57132;51.972;4.450;2023-04-01T01:43:09;99100.28;;;7.61;100.00
69836;BME280;57132;51.972;4.450;2023-04-01T01:45:37;99102.97;;;7.61;100.00
69836;BME280;57132;51.972;4.450;2023-04-01T01:48:05;99103.06;;;7.60;100.00
69836;BME280;57132;51.972;4.450;2023-04-01T01:50:32;99106.59;;;7.60;100.00
69836;BME280;57132;51.972;4.450;2023-04-01T01:53:07;99115.50;;;7.59;100.00
69836;BME280;57132;51.972;4.450;2023-04-01T01:55:37;99115.50;;;7.59;100.00
69836;BME280;57132;51.972;4.450;2023-04-01T01:58:33;99123.47;;;7.59;100.00
69836;BME280;57132;51.972;4.450;2023-04-01T02:01:08;99117.47;;;7.57;100.00
69836;BME280;57132;51.972;4.450;2023-04-01T02:03:36;99122.63;;;7.59;100.00
69836;BME280;57132;51.972;4.450;2023-04-01T02:06:06;99119.13;;;7.58;100.00
69836;BME280;57132;51.972;4.450;2023-04-01T02:08:36;99128.94;;;7.58;100.00
69836;BME280;57132;51.972;4.450;2023-04-01T02:11:16;99137.59;;;7.60;100.00
69836;BME280;57132;51.972;4.450;2023-04-01T02:13:52;99135.06;;;7.58;100.00
69836;BME280;57132;51.972;4.450;2023-04-01T02:16:34;99135.78;;;7.60;100.00
69836;BME280;57132;51.972;4.450;2023-04-01T02:19:03;99148.22;;;7.60;100.00
69836;BME280;57132;51.972;4.450;2023-04-01T02:21:33;99151.00;;;7.58;100.00
69836;BME280;57132;51.972;4.450;2023-04-01T02:24:01;99150.16;;;7.58;100.00
69836;BME280;57132;51.972;4.450;2023-04-01T02:26:28;99154.38;;;7.60;100.00
69836;BME280;57132;51.972;4.450;2023-04-01T02:28:54;99155.22;;;7.61;100.00
69836;BME280;57132;51.972;4.450;2023-04-01T02:31:21;99152.41;;;7.62;100.00
69836;BME280;57132;51.972;4.450;2023-04-01T02:33:47;99165.69;;;7.62;100.00
69836;BME280;57132;51.972;4.450;2023-04-01T02:36:14;99160.25;;;7.64;100.00
69836;BME280;57132;51.972;4.450;2023-04-01T02:38:40;99168.94;;;7.66;100.00
69836;BME280;57132;51.972;4.450;2023-04-01T02:41:06;99169.09;;;7.64;100.00
69836;BME280;57132;51.972;4.450;2023-04-01T02:43:32;99171.44;;;7.68;100.00
69836;BME280;57132;51.972;4.450;2023-04-01T02:45:58;99170.63;;;7.67;100.00
69836;BME280;57132;51.972;4.450;2023-04-01T02:48:23;99168.69;;;7.69;100.00
69836;BME280;57132;51.972;4.450;2023-04-01T02:50:49;99178.31;;;7.70;100.00
69836;BME280;57132;51.972;4.450;2023-04-01T02:53:14;99179.16;;;7.71;100.00
69836;BME280;57132;51.972;4.450;2023-04-01T02:55:40;99179.16;;;7.71;100.00
69836;BME280;57132;51.972;4.450;2023-04-01T02:58:06;99181.81;;;7.71;100.00
69836;BME280;57132;51.972;4.450;2023-04-01T03:00:31;99178.31;;;7.70;100.00
69836;BME280;57132;51.972;4.450;2023-04-01T03:02:57;99188.81;;;7.72;100.00
69836;BME280;57132;51.972;4.450;2023-04-01T03:05:23;99196.78;;;7.72;100.00
69836;BME280;57132;51.972;4.450;2023-04-01T03:07:48;99202.81;;;7.74;100.00
69836;BME280;57132;51.972;4.450;2023-04-01T03:10:14;99205.31;;;7.75;100.00
69836;BME280;57132;51.972;4.450;2023-04-01T03:12:40;99211.47;;;7.76;100.00
69836;BME280;57132;51.972;4.450;2023-04-01T03:15:05;99206.88;;;7.78;100.00
69836;BME280;57132;51.972;4.450;2023-04-01T03:17:31;99222.69;;;7.79;100.00
69836;BME280;57132;51.972;4.450;2023-04-01T03:19:56;99227.88;;;7.81;100.00
69836;BME280;57132;51.972;4.450;2023-04-01T03:22:22;99224.25;;;7.82;100.00
69836;BME280;57132;51.972;4.450;2023-04-01T03:24:48;99227.63;;;7.84;100.00
69836;BME280;57132;51.972;4.450;2023-04-01T03:27:14;99232.78;;;7.85;100.00
69836;BME280;57132;51.972;4.450;2023-04-01T03:29:39;99234.47;;;7.86;100.00
69836;BME280;57132;51.972;4.450;2023-04-01T03:32:05;99250.41;;;7.86;100.00
69836;BME280;57132;51.972;4.450;2023-04-01T03:34:31;99248.47;;;7.88;100.00
69836;BME280;57132;51.972;4.450;2023-04-01T03:36:57;99251.13;;;7.88;100.00
69836;BME280;57132;51.972;4.450;2023-04-01T03:39:22;99257.28;;;7.89;100.00
69836;BME280;57132;51.972;4.450;2023-04-01T03:41:48;99258.13;;;7.89;100.00
69836;BME280;57132;51.972;4.450;2023-04-01T03:44:14;99259.94;;;7.89;100.00
69836;BME280;57132;51.972;4.450;2023-04-01T03:46:39;99264.13;;;7.92;100.00
69836;BME280;57132;51.972;4.450;2023-04-01T03:49:10;99267.78;;;7.91;100.00
69836;BME280;57132;51.972;4.450;2023-04-01T03:51:43;99269.34;;;7.93;100.00
69836;BME280;57132;51.972;4.450;2023-04-01T03:54:10;99273.09;;;7.91;100.00
69836;BME280;57132;51.972;4.450;2023-04-01T03:56:36;99281.19;;;7.89;100.00
69836;BME280;57132;51.972;4.450;2023-04-01T03:59:03;99286.38;;;7.91;100.00
69836;BME280;57132;51.972;4.450;2023-04-01T04:01:30;99278.41;;;7.91;100.00
69836;BME280;57132;51.972;4.450;2023-04-01T04:03:56;99292.53;;;7.91;100.00
69836;BME280;57132;51.972;4.450;2023-04-01T04:06:23;99298.81;;;7.90;100.00
69836;BME280;57132;51.972;4.450;2023-04-01T04:08:49;99299.66;;;7.91;100.00
69836;BME280;57132;51.972;4.450;2023-04-01T04:11:15;99300.63;;;7.89;100.00
69836;BME280;57132;51.972;4.450;2023-04-01T04:13:41;99310.28;;;7.91;100.00
69836;BME280;57132;51.972;4.450;2023-04-01T04:16:07;99313.78;;;7.91;100.00
69836;BME280;57132;51.972;4.450;2023-04-01T04:18:33;99323.44;;;7.92;100.00
69836;BME280;57132;51.972;4.450;2023-04-01T04:20:59;99317.16;;;7.93;100.00
69836;BME280;57132;51.972;4.450;2023-04-01T04:23:24;99327.06;;;7.91;100.00
69836;BME280;57132;51.972;4.450;2023-04-01T04:26:04;99324.41;;;7.91;100.00
69836;BME280;57132;51.972;4.450;2023-04-01T04:28:31;99338.53;;;7.92;100.00
69836;BME280;57132;51.972;4.450;2023-04-01T04:30:57;99340.22;;;7.93;100.00
69836;BME280;57132;51.972;4.450;2023-04-01T04:33:23;99335.75;;;7.93;100.00
69836;BME280;57132;51.972;4.450;2023-04-01T04:35:49;99351.69;;;7.93;100.00
69836;BME280;57132;51.972;4.450;2023-04-01T04:38:15;99346.38;;;7.93;100.00
69836;BME280;57132;51.972;4.450;2023-04-01T04:40:41;99348.06;;;7.94;100.00
69836;BME280;57132;51.972;4.450;2023-04-01T04:43:10;99356.63;;;7.98;100.00
69836;BME280;57132;51.972;4.450;2023-04-01T04:45:36;99362.06;;;7.96;100.00
69836;BME280;57132;51.972;4.450;2023-04-01T04:48:01;99363.75;;;7.97;100.00
69836;BME280;57132;51.972;4.450;2023-04-01T04:50:27;99364.59;;;7.98;100.00
69836;BME280;57132;51.972;4.450;2023-04-01T04:52:52;99369.91;;;7.98;100.00
69836;BME280;57132;51.972;4.450;2023-04-01T04:55:18;99378.03;;;7.96;100.00
69836;BME280;57132;51.972;4.450;2023-04-01T04:57:44;99373.78;;;7.94;100.00
69836;BME280;57132;51.972;4.450;2023-04-01T05:00:09;99381.63;;;7.95;100.00
69836;BME280;57132;51.972;4.450;2023-04-01T05:02:35;99386.94;;;7.95;100.00
69836;BME280;57132;51.972;4.450;2023-04-01T05:05:01;99389.97;;;7.91;100.00
69836;BME280;57132;51.972;4.450;2023-04-01T05:07:26;99393.47;;;7.91;100.00
69836;BME280;57132;51.972;4.450;2023-04-01T05:09:51;99406.06;;;7.89;100.00
69836;BME280;57132;51.972;4.450;2023-04-01T05:12:17;99404.38;;;7.88;100.00
69836;BME280;57132;51.972;4.450;2023-04-01T05:14:42;99410.63;;;7.87;100.00
69836;BME280;57132;51.972;4.450;2023-04-01T05:17:12;99412.59;;;7.85;100.00
69836;BME280;57132;51.972;4.450;2023-04-01T05:19:38;99406.44;;;7.84;100.00
69836;BME280;57132;51.972;4.450;2023-04-01T05:22:04;99416.34;;;7.82;100.00
69836;BME280;57132;51.972;4.450;2023-04-01T05:24:30;99418.28;;;7.80;100.00
69836;BME280;57132;51.972;4.450;2023-04-01T05:26:55;99425.28;;;7.81;100.00
69836;BME280;57132;51.972;4.450;2023-04-01T05:29:23;99422.88;;;7.78;100.00
69836;BME280;57132;51.972;4.450;2023-04-01T05:31:48;99425.38;;;7.80;100.00
69836;BME280;57132;51.972;4.450;2023-04-01T05:34:14;99432.41;;;7.81;100.00
69836;BME280;57132;51.972;4.450;2023-04-01T05:36:39;99435.06;;;7.81;100.00
69836;BME280;57132;51.972;4.450;2023-04-01T05:39:06;99445.56;;;7.82;100.00
69836;BME280;57132;51.972;4.450;2023-04-01T05:41:35;99450.75;;;7.84;100.00
69836;BME280;57132;51.972;4.450;2023-04-01T05:44:00;99454.25;;;7.84;100.00
69836;BME280;57132;51.972;4.450;2023-04-01T05:46:25;99453.28;;;7.85;100.00
69836;BME280;57132;51.972;4.450;2023-04-01T05:48:51;99464.75;;;7.86;100.00
69836;BME280;57132;51.972;4.450;2023-04-01T05:51:16;99473.56;;;7.86;100.00
69836;BME280;57132;51.972;4.450;2023-04-01T05:53:42;99473.81;;;7.83;100.00
69836;BME280;57132;51.972;4.450;2023-04-01T05:56:08;99470.31;;;7.83;100.00
69836;BME280;57132;51.972;4.450;2023-04-01T05:58:35;99485.53;;;7.81;100.00
69836;BME280;57132;51.972;4.450;2023-04-01T06:01:02;99481.31;;;7.78;100.00
69836;BME280;57132;51.972;4.450;2023-04-01T06:03:28;99495.44;;;7.79;100.00
69836;BME280;57132;51.972;4.450;2023-04-01T06:05:54;99497.38;;;7.77;100.00
69836;BME280;57132;51.972;4.450;2023-04-01T06:08:19;99501.13;;;7.74;100.00
69836;BME280;57132;51.972;4.450;2023-04-01T06:10:49;99506.56;;;7.73;100.00
69836;BME280;57132;51.972;4.450;2023-04-01T06:38:55;99551.72;;;7.73;100.00
69836;BME280;57132;51.972;4.450;2023-04-01T06:44:16;99559.31;;;7.77;100.00
69836;BME280;57132;51.972;4.450;2023-04-01T06:46:58;99556.28;;;7.82;100.00
69836;BME280;57132;51.972;4.450;2023-04-01T06:52:25;99560.63;;;7.94;100.00
69836;BME280;57132;51.972;4.450;2023-04-01T06:55:02;99567.75;;;7.94;100.00
69836;BME280;57132;51.972;4.450;2023-04-01T06:57:38;99570.41;;;7.94;100.00
69836;BME280;57132;51.972;4.450;2023-04-01T07:00:30;99570.88;;;7.99;100.00
69836;BME280;57132;51.972;4.450;2023-04-01T07:03:05;99567.72;;;8.05;100.00
69836;BME280;57132;51.972;4.450;2023-04-01T07:05:32;99581.72;;;8.07;100.00
69836;BME280;57132;51.972;4.450;2023-04-01T07:08:02;99583.06;;;8.12;100.00
69836;BME280;57132;51.972;4.450;2023-04-01T07:10:43;99580.78;;;8.08;100.00
69836;BME280;57132;51.972;4.450;2023-04-01T07:13:18;99583.16;;;8.11;100.00
69836;BME280;57132;51.972;4.450;2023-04-01T07:15:55;99591.63;;;8.16;100.00
69836;BME280;57132;51.972;4.450;2023-04-01T07:23:50;99600.66;;;8.25;100.00
69836;BME280;57132;51.972;4.450;2023-04-01T07:26:20;99606.00;;;8.25;100.00
69836;BME280;57132;51.972;4.450;2023-04-01T07:28:46;99612.00;;;8.27;100.00
69836;BME280;57132;51.972;4.450;2023-04-01T07:34:09;99610.34;;;8.37;100.00
69836;BME280;57132;51.972;4.450;2023-04-01T07:41:55;99627.59;;;8.31;100.00
69836;BME280;57132;51.972;4.450;2023-04-01T07:52:55;99632.44;;;8.26;100.00
69836;BME280;57132;51.972;4.450;2023-04-01T08:00:51;99650.72;;;8.20;100.00
69836;BME280;57132;51.972;4.450;2023-04-01T08:06:31;99657.81;;;8.30;100.00
69836;BME280;57132;51.972;4.450;2023-04-01T08:09:10;99668.47;;;8.42;100.00
69836;BME280;57132;51.972;4.450;2023-04-01T08:11:50;99672.19;;;8.50;100.00
69836;BME280;57132;51.972;4.450;2023-04-01T08:23:11;99684.47;;;8.62;100.00
69836;BME280;57132;51.972;4.450;2023-04-01T08:25:40;99687.41;;;8.59;100.00
69836;BME280;57132;51.972;4.450;2023-04-01T08:33:29;99696.34;;;8.47;100.00
69836;BME280;57132;51.972;4.450;2023-04-01T08:38:49;99695.63;;;8.56;100.00
69836;BME280;57132;51.972;4.450;2023-04-01T08:47:23;99717.75;;;8.68;100.00
69836;BME280;57132;51.972;4.450;2023-04-01T08:52:42;99719.63;;;8.89;100.00
69836;BME280;57132;51.972;4.450;2023-04-01T08:57:45;99725.06;;;8.87;100.00
69836;BME280;57132;51.972;4.450;2023-04-01T09:00:24;99728.47;;;8.78;100.00
69836;BME280;57132;51.972;4.450;2023-04-01T09:30:31;99765.03;;;8.65;100.00
69836;BME280;57132;51.972;4.450;2023-04-01T09:35:56;99775.75;;;8.63;100.00
69836;BME280;57132;51.972;4.450;2023-04-01T10:14:41;99813.47;;;9.02;100.00
69836;BME280;57132;51.972;4.450;2023-04-01T10:28:57;99825.88;;;9.24;100.00
69836;BME280;57132;51.972;4.450;2023-04-01T10:31:43;99835.41;;;9.26;100.00
69836;BME280;57132;51.972;4.450;2023-04-01T10:36:58;99837.13;;;9.27;100.00
69836;BME280;57132;51.972;4.450;2023-04-01T10:42:29;99842.53;;;9.37;100.00
69836;BME280;57132;51.972;4.450;2023-04-01T10:52:57;99848.28;;;9.10;100.00
69836;BME280;57132;51.972;4.450;2023-04-01T11:06:37;99861.59;;;9.21;100.00
69836;BME280;57132;51.972;4.450;2023-04-01T11:13:00;99863.91;;;9.15;100.00
69836;BME280;57132;51.972;4.450;2023-04-01T11:15:31;99870.78;;;9.17;100.00
69836;BME280;57132;51.972;4.450;2023-04-01T11:31:58;99885.94;;;9.05;100.00
69836;BME280;57132;51.972;4.450;2023-04-01T11:37:45;99887.00;;;9.25;100.00
69836;BME280;57132;51.972;4.450;2023-04-01T11:40:31;99892.94;;;9.18;100.00
69836;BME280;57132;51.972;4.450;2023-04-01T11:43:34;99900.81;;;9.08;100.00
69836;BME280;57132;51.972;4.450;2023-04-01T11:46:11;99902.13;;;9.14;100.00
69836;BME280;57132;51.972;4.450;2023-04-01T11:59:53;99912.44;;;9.61;100.00
69836;BME280;57132;51.972;4.450;2023-04-01T12:05:43;99931.81;;;9.75;100.00
69836;BME280;57132;51.972;4.450;2023-04-01T12:08:21;99930.75;;;9.66;100.00
69836;BME280;57132;51.972;4.450;2023-04-01T12:11:03;99932.84;;;9.51;100.00
69836;BME280;57132;51.972;4.450;2023-04-01T12:38:48;99966.00;;;9.58;100.00
69836;BME280;57132;51.972;4.450;2023-04-01T12:44:39;99968.63;;;9.70;100.00
69836;BME280;57132;51.972;4.450;2023-04-01T12:47:21;99970.97;;;9.63;100.00
69836;BME280;57132;51.972;4.450;2023-04-01T12:53:21;99979.59;;;9.44;100.00
69836;BME280;57132;51.972;4.450;2023-04-01T12:55:52;99986.25;;;9.39;100.00
69836;BME280;57132;51.972;4.450;2023-04-01T12:58:58;99981.41;;;9.44;100.00
69836;BME280;57132;51.972;4.450;2023-04-01T13:09:23;99995.41;;;9.79;100.00
69836;BME280;57132;51.972;4.450;2023-04-01T13:12:02;100003.75;;;9.86;100.00
69836;BME280;57132;51.972;4.450;2023-04-01T13:22:13;100013.00;;;9.59;100.00
69836;BME280;57132;51.972;4.450;2023-04-01T13:24:49;100014.44;;;9.64;100.00
69836;BME280;57132;51.972;4.450;2023-04-01T13:33:16;100026.28;;;9.82;100.00
69836;BME280;57132;51.972;4.450;2023-04-01T13:35:44;100036.44;;;9.88;100.00
69836;BME280;57132;51.972;4.450;2023-04-01T13:44:11;100043.09;;;9.94;100.00
69836;BME280;57132;51.972;4.450;2023-04-01T13:57:37;100055.72;;;9.58;100.00
69836;BME280;57132;51.972;4.450;2023-04-01T14:00:30;100055.84;;;9.45;100.00
69836;BME280;57132;51.972;4.450;2023-04-01T14:03:26;100058.88;;;9.41;100.00
69836;BME280;57132;51.972;4.450;2023-04-01T14:05:59;100074.38;;;9.35;100.00
69836;BME280;57132;51.972;4.450;2023-04-01T14:17:02;100077.31;;;9.66;100.00
69836;BME280;57132;51.972;4.450;2023-04-01T14:22:38;100075.13;;;9.82;100.00
69836;BME280;57132;51.972;4.450;2023-04-01T14:33:38;100099.44;;;10.00;100.00
69836;BME280;57132;51.972;4.450;2023-04-01T14:50:02;100118.94;;;9.90;100.00
69836;BME280;57132;51.972;4.450;2023-04-01T14:52:31;100128.28;;;9.95;100.00
69836;BME280;57132;51.972;4.450;2023-04-01T14:55:11;100132.28;;;10.01;100.00
69836;BME280;57132;51.972;4.450;2023-04-01T14:57:58;100128.53;;;10.03;100.00
69836;BME280;57132;51.972;4.450;2023-04-01T15:00:24;100129.28;;;9.94;100.00
69836;BME280;57132;51.972;4.450;2023-04-01T15:09:49;100141.13;;;9.68;100.00
69836;BME280;57132;51.972;4.450;2023-04-01T15:22:56;100161.81;;;9.53;100.00
69836;BME280;57132;51.972;4.450;2023-04-01T15:25:45;100159.63;;;9.47;100.00
69836;BME280;57132;51.972;4.450;2023-04-01T15:28:24;100163.75;;;9.40;100.00
69836;BME280;57132;51.972;4.450;2023-04-01T15:42:24;100184.19;;;9.04;100.00
69836;BME280;57132;51.972;4.450;2023-04-01T15:53:13;100198.84;;;9.09;100.00
69836;BME280;57132;51.972;4.450;2023-04-01T15:55:41;100197.16;;;9.08;100.00
69836;BME280;57132;51.972;4.450;2023-04-01T15:58:47;100201.63;;;9.08;100.00
69836;BME280;57132;51.972;4.450;2023-04-01T16:02:11;100204.75;;;9.02;100.00
69836;BME280;57132;51.972;4.450;2023-04-01T16:10:04;100221.19;;;8.96;100.00
69836;BME280;57132;51.972;4.450;2023-04-01T16:12:42;100222.75;;;8.98;100.00
69836;BME280;57132;51.972;4.450;2023-04-01T16:15:26;100233.69;;;9.06;100.00
69836;BME280;57132;51.972;4.450;2023-04-01T16:21:11;100246.56;;;9.13;100.00
69836;BME280;57132;51.972;4.450;2023-04-01T16:23:58;100242.69;;;9.17;100.00
69836;BME280;57132;51.972;4.450;2023-04-01T16:42:53;100285.56;;;9.01;100.00
69836;BME280;57132;51.972;4.450;2023-04-01T16:45:33;100287.50;;;8.99;100.00
69836;BME280;57132;51.972;4.450;2023-04-01T16:48:17;100294.00;;;8.95;100.00
69836;BME280;57132;51.972;4.450;2023-04-01T16:51:04;100297.63;;;8.94;100.00
69836;BME280;57132;51.972;4.450;2023-04-01T16:53:46;100306.47;;;8.94;100.00
69836;BME280;57132;51.972;4.450;2023-04-01T16:56:18;100305.94;;;8.89;100.00
69836;BME280;57132;51.972;4.450;2023-04-01T17:07:46;100332.06;;;8.84;100.00
69836;BME280;57132;51.972;4.450;2023-04-01T17:10:41;100337.38;;;8.84;100.00
69836;BME280;57132;51.972;4.450;2023-04-01T17:13:29;100346.09;;;8.86;100.00
69836;BME280;57132;51.972;4.450;2023-04-01T17:16:24;100348.75;;;8.86;100.00
69836;BME280;57132;51.972;4.450;2023-04-01T17:19:14;100362.06;;;8.86;100.00
69836;BME280;57132;51.972;4.450;2023-04-01T17:30:19;100378.78;;;8.88;100.00
69836;BME280;57132;51.972;4.450;2023-04-01T17:33:51;100387.81;;;8.85;100.00
69836;BME280;57132;51.972;4.450;2023-04-01T17:35:57;100392.63;;;8.80;100.00
69836;BME280;57132;51.972;4.450;2023-04-01T17:41:42;100403.34;;;8.79;100.00
69836;BME280;57132;51.972;4.450;2023-04-01T17:47:25;100427.63;;;8.74;100.00
69836;BME280;57132;51.972;4.450;2023-04-01T17:55:16;100447.97;;;8.62;100.00
69836;BME280;57132;51.972;4.450;2023-04-01T17:57:59;100450.53;;;8.64;100.00
69836;BME280;57132;51.972;4.450;2023-04-01T18:00:33;100452.44;;;8.62;100.00
69836;BME280;57132;51.972;4.450;2023-04-01T18:06:09;100460.53;;;8.60;100.00
69836;BME280;57132;51.972;4.450;2023-04-01T18:09:00;100468.72;;;8.57;100.00
69836;BME280;57132;51.972;4.450;2023-04-01T18:14:17;100489.28;;;8.55;100.00
69836;BME280;57132;51.972;4.450;2023-04-01T18:22:45;100510.84;;;8.51;100.00
69836;BME280;57132;51.972;4.450;2023-04-01T18:27:47;100521.91;;;8.45;100.00
69836;BME280;57132;51.972;4.450;2023-04-01T18:30:20;100532.75;;;8.42;100.00
69836;BME280;57132;51.972;4.450;2023-04-01T18:32:56;100541.88;;;8.37;100.00
69836;BME280;57132;51.972;4.450;2023-04-01T18:36:46;100547.47;;;8.33;100.00
69836;BME280;57132;51.972;4.450;2023-04-01T18:38:47;100552.03;;;8.31;100.00
69836;BME280;57132;51.972;4.450;2023-04-01T18:41:32;100555.66;;;8.30;100.00
69836;BME280;57132;51.972;4.450;2023-04-01T18:44:16;100557.34;;;8.31;100.00
69836;BME280;57132;51.972;4.450;2023-04-01T18:46:49;100570.88;;;8.28;100.00
69836;BME280;57132;51.972;4.450;2023-04-01T18:49:48;100581.59;;;8.26;100.00
69836;BME280;57132;51.972;4.450;2023-04-01T18:52:22;100588.91;;;8.23;100.00
69836;BME280;57132;51.972;4.450;2023-04-01T18:55:18;100590.91;;;8.19;100.00
69836;BME280;57132;51.972;4.450;2023-04-01T18:57:52;100598.34;;;8.14;100.00
69836;BME280;57132;51.972;4.450;2023-04-01T19:00:25;100602.81;;;8.13;100.00
69836;BME280;57132;51.972;4.450;2023-04-01T19:05:36;100616.09;;;8.13;100.00
69836;BME280;57132;51.972;4.450;2023-04-01T19:08:26;100629.69;;;8.09;100.00
69836;BME280;57132;51.972;4.450;2023-04-01T19:13:36;100640.63;;;8.04;100.00
69836;BME280;57132;51.972;4.450;2023-04-01T19:18:55;100647.94;;;8.01;100.00
69836;BME280;57132;51.972;4.450;2023-04-01T19:21:29;100649.94;;;7.97;100.00
69836;BME280;57132;51.972;4.450;2023-04-01T19:40:35;100683.72;;;7.81;100.00
69836;BME280;57132;51.972;4.450;2023-04-01T19:45:47;100698.03;;;7.78;100.00
69836;BME280;57132;51.972;4.450;2023-04-01T19:51:09;100708.84;;;7.75;100.00
69836;BME280;57132;51.972;4.450;2023-04-01T19:53:51;100709.69;;;7.76;100.00
69836;BME280;57132;51.972;4.450;2023-04-01T19:56:24;100710.59;;;7.76;100.00
69836;BME280;57132;51.972;4.450;2023-04-01T19:59:13;100715.97;;;7.75;100.00
69836;BME280;57132;51.972;4.450;2023-04-01T20:18:00;100762.16;;;7.58;100.00
69836;BME280;57132;51.972;4.450;2023-04-01T20:20:28;100770.97;;;7.58;100.00
69836;BME280;57132;51.972;4.450;2023-04-01T20:26:01;100776.66;;;7.52;100.00
69836;BME280;57132;51.972;4.450;2023-04-01T20:28:42;100784.72;;;7.51;100.00
69836;BME280;57132;51.972;4.450;2023-04-01T20:31:23;100791.03;;;7.48;100.00
69836;BME280;57132;51.972;4.450;2023-04-01T20:39:40;100815.91;;;7.47;100.00
69836;BME280;57132;51.972;4.450;2023-04-01T20:47:42;100829.28;;;7.46;100.00
69836;BME280;57132;51.972;4.450;2023-04-01T20:53:11;100846.59;;;7.37;100.00
69836;BME280;57132;51.972;4.450;2023-04-01T20:58:36;100858.34;;;7.33;100.00
69836;BME280;57132;51.972;4.450;2023-04-01T21:04:36;100859.47;;;7.29;100.00
69836;BME280;57132;51.972;4.450;2023-04-01T21:07:24;100867.75;;;7.23;100.00
69836;BME280;57132;51.972;4.450;2023-04-01T21:10:17;100876.56;;;7.23;100.00
69836;BME280;57132;51.972;4.450;2023-04-01T21:20:56;100902.25;;;7.07;100.00
69836;BME280;57132;51.972;4.450;2023-04-01T21:34:43;100935.31;;;7.01;100.00
69836;BME280;57132;51.972;4.450;2023-04-01T21:37:26;100942.84;;;6.93;100.00
69836;BME280;57132;51.972;4.450;2023-04-01T21:40:01;100955.31;;;6.91;100.00
69836;BME280;57132;51.972;4.450;2023-04-01T21:42:45;100960.88;;;6.86;100.00
69836;BME280;57132;51.972;4.450;2023-04-01T21:45:39;100953.06;;;6.83;100.00
69836;BME280;57132;51.972;4.450;2023-04-01T21:48:37;100967.19;;;6.84;100.00
69836;BME280;57132;51.972;4.450;2023-04-01T22:00:07;100990.63;;;6.76;100.00
69836;BME280;57132;51.972;4.450;2023-04-01T22:07:49;101014.75;;;6.71;100.00
69836;BME280;57132;51.972;4.450;2023-04-01T22:21:00;101032.53;;;6.52;100.00
69836;BME280;57132;51.972;4.450;2023-04-01T22:26:15;101033.38;;;6.52;100.00
69836;BME280;57132;51.972;4.450;2023-04-01T22:31:46;101060.06;;;6.49;100.00
69836;BME280;57132;51.972;4.450;2023-04-01T22:34:24;101054.84;;;6.48;100.00
69836;BME280;57132;51.972;4.450;2023-04-01T22:55:52;101091.47;;;6.39;100.00
69836;BME280;57132;51.972;4.450;2023-04-01T22:58:42;101088.91;;;6.38;100.00
69836;BME280;57132;51.972;4.450;2023-04-01T23:01:14;101105.75;;;6.37;100.00
69836;BME280;57132;51.972;4.450;2023-04-01T23:03:41;101104.03;;;6.36;100.00
69836;BME280;57132;51.972;4.450;2023-04-01T23:06:20;101111.13;;;6.35;100.00
69836;BME280;57132;51.972;4.450;2023-04-01T23:09:14;101107.63;;;6.35;100.00
69836;BME280;57132;51.972;4.450;2023-04-01T23:11:47;101109.41;;;6.34;100.00
69836;BME280;57132;51.972;4.450;2023-04-01T23:14:32;101113.06;;;6.32;100.00
69836;BME280;57132;51.972;4.450;2023-04-01T23:18:04;101122.91;;;6.30;100.00
69836;BME280;57132;51.972;4.450;2023-04-01T23:20:30;101124.97;;;6.23;100.00
69836;BME280;57132;51.972;4.450;2023-04-01T23:25:29;101142.69;;;6.23;100.00
69836;BME280;57132;51.972;4.450;2023-04-01T23:28:13;101141.75;;;6.24;100.00